createdAt,value
2022-12-18T00:00:04.138Z,825
2022-12-18T00:15:05.028Z,804
2022-12-18T00:30:05.784Z,788
2022-12-18T00:45:02.947Z,778
2022-12-18T01:00:03.011Z,771
2022-12-18T01:15:05.951Z,763
2022-12-18T01:30:05.131Z,758
2022-12-18T01:45:04.884Z,755
2022-12-18T02:00:02.605Z,755
2022-12-18T02:15:01.665Z,752
2022-12-18T02:30:04.886Z,748
2022-12-18T02:45:03.635Z,744
2022-12-18T03:00:04.074Z,737
2022-12-18T03:15:05.973Z,730
2022-12-18T03:30:03.155Z,726
2022-12-18T03:45:05.601Z,721
2022-12-18T04:00:04.762Z,714
2022-12-18T04:15:06.080Z,709
2022-12-18T04:30:05.666Z,703
2022-12-18T04:45:03.882Z,700
2022-12-18T05:00:05.729Z,700
2022-12-18T05:15:01.875Z,707
2022-12-18T05:30:05.126Z,715
2022-12-18T05:45:04.843Z,719
2022-12-18T06:00:03.050Z,719
2022-12-18T06:15:06.105Z,716
2022-12-18T06:30:01.746Z,710
2022-12-18T07:00:03.085Z,710
2022-12-18T07:15:04.144Z,721
2022-12-18T07:30:06.209Z,739
2022-12-18T07:45:04.598Z,762
2022-12-18T08:00:02.952Z,785
2022-12-18T08:15:05.998Z,807
2022-12-18T08:30:04.630Z,841
2022-12-18T08:45:04.928Z,876
2022-12-18T09:00:03.667Z,909
2022-12-18T09:15:02.647Z,941
2022-12-18T09:30:02.727Z,967
2022-12-18T09:45:04.751Z,984
2022-12-18T10:00:02.092Z,1003
2022-12-18T10:15:05.761Z,1035
2022-12-18T10:30:04.957Z,1063
2022-12-18T10:45:03.729Z,1088
2022-12-18T11:00:01.661Z,1090
2022-12-18T11:15:01.875Z,1082
2022-12-18T11:30:04.097Z,1073
2022-12-18T11:45:01.910Z,1083
2022-12-18T12:00:03.155Z,1094
2022-12-18T12:15:01.650Z,1103
2022-12-18T12:30:03.862Z,1100
2022-12-18T12:45:02.889Z,1119
2022-12-18T13:00:04.987Z,1108
2022-12-18T13:15:03.582Z,1113
2022-12-18T13:30:06.256Z,1136
2022-12-18T13:45:02.686Z,1153
2022-12-18T14:00:04.799Z,1123
2022-12-18T14:15:02.099Z,1103
2022-12-18T14:30:04.723Z,1075
2022-12-18T14:45:05.074Z,1034
2022-12-18T15:00:04.910Z,995
2022-12-18T15:15:02.662Z,992
2022-12-18T15:30:04.796Z,1004
2022-12-18T15:45:05.143Z,1021
2022-12-18T16:00:04.858Z,1044
2022-12-18T16:15:04.652Z,1079
2022-12-18T16:30:04.955Z,1098
2022-12-18T16:45:03.728Z,1121
2022-12-18T17:00:02.662Z,1155
2022-12-18T17:15:02.818Z,1197
2022-12-18T17:30:04.866Z,1229
2022-12-18T17:45:02.707Z,1262
2022-12-18T18:00:02.772Z,1284
2022-12-18T18:15:03.894Z,1285
2022-12-18T18:30:01.808Z,1270
2022-12-18T18:45:04.099Z,1249
2022-12-18T19:00:02.966Z,1226
2022-12-18T19:15:03.028Z,1212
2022-12-18T19:30:04.184Z,1193
2022-12-18T19:45:02.063Z,1172
2022-12-18T20:00:02.099Z,1144
2022-12-18T20:15:05.003Z,1105
2022-12-18T20:30:05.835Z,1064
2022-12-18T20:45:01.933Z,1027
2022-12-18T21:00:05.155Z,994
2022-12-18T21:15:05.944Z,969
2022-12-18T21:30:03.087Z,949
2022-12-18T21:45:02.155Z,930
2022-12-18T22:00:05.981Z,913
2022-12-18T22:15:04.977Z,887
2022-12-18T22:30:02.723Z,853
2022-12-18T22:45:05.783Z,820
2022-12-18T23:00:01.957Z,783
2022-12-18T23:15:02.093Z,748
2022-12-18T23:30:03.757Z,729
2022-12-18T23:45:01.675Z,722
